Time;durP1;ratioP1;P1;durP2;ratioP2;P2;SDS_P1;SDS_P2;PMS_P1;PMS_P2;Temp;Humidity;BMP_temperature;BMP_pressure;BME280_temperature;BME280_humidity;BME280_pressure;Samples;Min_cycle;Max_cycle;Signal;HPM_P1;HPM_P2
2023/05/31 00:00:19;;;;;;;20.65;13.05;;;;;;;15.33;76.34;101591.28;5015823;28;20049;-64
2023/05/31 00:02:47;;;;;;;30.52;14.32;;;;;;;15.16;76.88;101596.81;5017284;28;20064;-63
2023/05/31 00:05:14;;;;;;;21.05;13.38;;;;;;;15.08;77.56;101581.75;5015012;28;20060;-63
2023/05/31 00:07:41;;;;;;;22.27;14.10;;;;;;;15.17;76.99;101587.31;5016091;28;20050;-64
2023/05/31 00:10:09;;;;;;;19.52;13.88;;;;;;;14.85;78.76;101585.78;5003048;28;20058;-63
2023/05/31 00:12:36;;;;;;;23.27;13.25;;;;;;;15.21;77.75;101580.00;5009716;28;20053;-64
2023/05/31 00:15:04;;;;;;;23.02;14.35;;;;;;;15.29;76.89;101582.78;5015157;28;20061;-64
2023/05/31 00:17:32;;;;;;;24.00;13.68;;;;;;;15.30;76.63;101586.38;5015296;28;20046;-64
2023/05/31 00:20:17;;;;;;;22.50;13.52;;;;;;;15.28;76.52;101583.94;5016753;28;20661;-64
2023/05/31 00:22:45;;;;;;;22.55;12.90;;;;;;;15.38;76.13;101580.03;5016747;28;20054;-65
2023/05/31 00:25:12;;;;;;;21.33;13.85;;;;;;;15.45;75.62;101585.94;5014839;28;20046;-64
2023/05/31 00:27:40;;;;;;;23.63;12.98;;;;;;;15.29;76.39;101588.34;5015050;28;20099;-64
2023/05/31 00:30:08;;;;;;;23.05;13.25;;;;;;;15.21;76.86;101585.53;5016279;28;20057;-63
2023/05/31 00:32:36;;;;;;;21.58;13.40;;;;;;;15.38;76.06;101585.56;5015121;28;20057;-64
2023/05/31 00:35:03;;;;;;;22.20;13.35;;;;;;;15.50;75.41;101588.56;5015571;28;20050;-66
2023/05/31 00:37:36;;;;;;;25.42;13.55;;;;;;;15.29;76.44;101582.00;5015911;28;20054;-64
2023/05/31 00:40:05;;;;;;;20.42;13.23;;;;;;;15.29;76.08;101585.56;4998259;28;20053;-65
2023/05/31 00:42:33;;;;;;;21.95;13.77;;;;;;;15.17;76.60;101590.94;5046165;28;20041;-65
2023/05/31 00:45:01;;;;;;;23.20;13.13;;;;;;;15.27;76.51;101579.50;5016177;28;20054;-65
2023/05/31 00:47:28;;;;;;;21.33;13.75;;;;;;;15.25;76.13;101578.22;5008606;28;20045;-65
2023/05/31 00:49:56;;;;;;;21.05;14.65;;;;;;;15.10;76.54;101587.81;4998157;28;20050;-64
2023/05/31 00:52:25;;;;;;;20.38;13.85;;;;;;;14.95;77.65;101581.88;5014411;28;20053;-64
2023/05/31 00:54:53;;;;;;;20.80;14.37;;;;;;;14.73;78.88;101577.25;4997512;28;20512;-64
2023/05/31 00:57:20;;;;;;;20.95;14.52;;;;;;;14.88;78.44;101579.59;5015462;28;20061;-65
2023/05/31 00:59:47;;;;;;;24.33;14.93;;;;;;;14.87;78.45;101574.38;5014504;28;20057;-65
2023/05/31 01:02:17;;;;;;;21.83;14.65;;;;;;;14.87;78.35;101563.28;5015021;28;20064;-64
2023/05/31 01:04:44;;;;;;;26.65;15.05;;;;;;;14.83;78.01;101556.72;5015482;28;20050;-64
2023/05/31 01:07:12;;;;;;;23.25;15.57;;;;;;;14.60;79.45;101564.31;5015837;28;20517;-64
2023/05/31 01:09:43;;;;;;;23.67;14.90;;;;;;;14.74;79.08;101567.78;5044816;28;20064;-64
2023/05/31 01:12:21;;;;;;;21.90;14.07;;;;;;;14.95;77.95;101565.25;5002043;28;20054;-65
2023/05/31 01:15:32;;;;;;;26.67;14.90;;;;;;;14.78;78.73;101567.97;4979120;28;20494;-64
2023/05/31 01:18:24;;;;;;;21.70;14.10;;;;;;;14.52;79.67;101567.88;4995983;28;20528;-64
2023/05/31 01:20:54;;;;;;;25.05;14.75;;;;;;;14.56;80.17;101560.53;5014224;28;20058;-64
2023/05/31 01:23:37;;;;;;;24.75;15.48;;;;;;;14.78;79.02;101552.16;4998423;28;20056;-65
2023/05/31 01:26:12;;;;;;;23.52;14.35;;;;;;;14.55;79.94;101556.13;5014303;28;20054;-64
2023/05/31 01:28:41;;;;;;;23.52;14.90;;;;;;;14.44;80.35;101561.13;4996509;28;20054;-65
2023/05/31 01:31:13;;;;;;;25.88;14.80;;;;;;;14.26;81.53;101553.84;5010199;28;20064;-64
2023/05/31 01:33:41;;;;;;;25.48;16.08;;;;;;;14.32;81.07;101551.78;4997530;28;20058;-65
2023/05/31 01:36:09;;;;;;;24.67;15.25;;;;;;;14.32;80.97;101560.91;4980751;28;20050;-63
2023/05/31 01:38:37;;;;;;;22.65;15.95;;;;;;;14.34;81.17;101550.31;5006117;28;20050;-64
2023/05/31 01:41:06;;;;;;;23.33;15.48;;;;;;;14.29;81.48;101549.63;5012586;28;20057;-64
2023/05/31 01:43:35;;;;;;;24.15;16.05;;;;;;;14.39;81.15;101543.81;4997996;28;20049;-64
2023/05/31 01:46:04;;;;;;;24.33;15.15;;;;;;;14.50;80.29;101545.19;4996893;28;20049;-65
2023/05/31 01:48:32;;;;;;;27.30;14.85;;;;;;;14.37;81.18;101546.91;5014411;28;20052;-64
2023/05/31 01:51:01;;;;;;;21.27;15.35;;;;;;;14.49;80.47;101549.91;5013946;28;20054;-64
2023/05/31 01:53:28;;;;;;;21.65;15.15;;;;;;;14.43;80.12;101544.81;5014582;28;20049;-66
2023/05/31 01:55:57;;;;;;;25.10;16.13;;;;;;;14.26;80.71;101537.22;5028693;28;20054;-65
2023/05/31 01:58:25;;;;;;;29.13;16.63;;;;;;;14.17;82.37;101543.84;4996438;28;20055;-65
2023/05/31 02:00:53;;;;;;;23.10;15.88;;;;;;;14.18;82.09;101548.22;5012531;28;20053;-65
2023/05/31 02:03:20;;;;;;;19.77;14.98;;;;;;;14.30;81.33;101543.78;5014714;28;20589;-65
2023/05/31 02:05:58;;;;;;;22.52;15.48;;;;;;;14.03;83.17;101540.31;5013477;28;20050;-64
2023/05/31 02:08:26;;;;;;;26.67;16.17;;;;;;;14.17;82.24;101541.06;5013113;28;20056;-64
2023/05/31 02:10:54;;;;;;;22.10;15.50;;;;;;;14.15;82.23;101535.03;5005971;28;20053;-64
2023/05/31 02:13:25;;;;;;;19.98;15.40;;;;;;;14.19;82.37;101536.03;5028611;28;20080;-64
2023/05/31 02:15:54;;;;;;;23.77;16.50;;;;;;;14.10;82.40;101536.00;5013341;28;20056;-64
2023/05/31 02:18:22;;;;;;;24.95;15.93;;;;;;;14.05;82.42;101538.06;5013324;28;20056;-64
2023/05/31 02:20:49;;;;;;;24.60;16.38;;;;;;;14.10;82.78;101538.75;4977682;28;20502;-63
2023/05/31 02:23:19;;;;;;;20.90;15.50;;;;;;;14.06;82.65;101532.22;5033907;28;20057;-65
2023/05/31 02:25:48;;;;;;;21.58;16.05;;;;;;;14.15;82.36;101532.25;5009480;28;20054;-64
2023/05/31 02:28:16;;;;;;;25.25;16.58;;;;;;;14.24;81.62;101535.91;5007297;28;20042;-64
2023/05/31 02:30:57;;;;;;;26.20;15.63;;;;;;;14.16;81.68;101528.34;5013176;28;20056;-64
2023/05/31 02:33:25;;;;;;;22.13;16.27;;;;;;;13.82;83.36;101533.66;5011700;28;20520;-64
2023/05/31 02:35:52;;;;;;;24.63;15.85;;;;;;;14.04;83.01;101528.94;5013192;28;20046;-64
2023/05/31 02:38:20;;;;;;;24.58;16.52;;;;;;;13.98;83.05;101527.41;4992392;28;20038;-65
2023/05/31 02:40:48;;;;;;;23.20;16.67;;;;;;;13.96;83.13;101526.94;5006084;28;20551;-65
2023/05/31 02:43:16;;;;;;;24.35;17.02;;;;;;;13.83;83.45;101529.75;5045817;28;20057;-64
2023/05/31 02:45:43;;;;;;;25.35;16.67;;;;;;;13.87;84.15;101530.75;5028700;28;20045;-64
2023/05/31 02:48:11;;;;;;;27.13;16.40;;;;;;;13.99;83.44;101528.25;5028628;28;20050;-64
2023/05/31 02:50:40;;;;;;;22.15;16.15;;;;;;;13.88;83.35;101524.13;5028087;28;20062;-65
2023/05/31 02:53:22;;;;;;;27.52;15.95;;;;;;;14.09;82.89;101536.28;5013064;28;20065;-65
2023/05/31 02:55:55;;;;;;;24.33;15.25;;;;;;;14.09;82.01;101528.78;5011318;28;20053;-65
2023/05/31 02:58:22;;;;;;;24.23;16.35;;;;;;;13.96;82.85;101531.66;5013973;28;20053;-64
2023/05/31 03:01:08;;;;;;;28.17;16.88;;;;;;;13.73;84.09;101536.38;5013834;28;20054;-65
2023/05/31 03:03:44;;;;;;;24.50;16.33;;;;;;;13.94;83.71;101533.91;5001824;28;20274;-65
2023/05/31 03:06:24;;;;;;;28.45;15.90;;;;;;;14.15;81.78;101515.63;5025640;28;20050;-65
2023/05/31 03:08:51;;;;;;;23.27;15.98;;;;;;;13.92;82.97;101528.69;5002694;28;20057;-64
2023/05/31 03:11:21;;;;;;;25.00;16.17;;;;;;;13.98;83.08;101521.06;5028944;28;20124;-64
2023/05/31 03:13:48;;;;;;;22.25;16.13;;;;;;;13.79;83.54;101524.03;5012813;28;20125;-64
2023/05/31 03:16:16;;;;;;;25.65;16.48;;;;;;;13.60;84.73;101508.75;5011367;28;20064;-64
2023/05/31 03:18:44;;;;;;;28.33;16.67;;;;;;;13.72;84.43;101507.03;5008256;28;20068;-63
2023/05/31 03:21:12;;;;;;;22.90;16.60;;;;;;;13.71;84.55;101510.94;5045421;28;20049;-64
2023/05/31 03:23:40;;;;;;;25.95;16.20;;;;;;;13.83;84.10;101513.13;5009119;28;20050;-64
2023/05/31 03:26:07;;;;;;;28.20;17.55;;;;;;;13.88;83.42;101516.59;4993403;28;20053;-65
2023/05/31 03:28:35;;;;;;;27.05;16.88;;;;;;;13.89;83.34;101511.88;5025244;28;20398;-64
2023/05/31 03:31:03;;;;;;;25.63;17.23;;;;;;;14.00;82.46;101514.06;5012692;28;20045;-65
2023/05/31 03:33:31;;;;;;;25.80;16.80;;;;;;;13.88;83.34;101515.81;5012139;28;20061;-64
2023/05/31 03:35:58;;;;;;;29.88;17.08;;;;;;;13.90;83.24;101516.28;5010672;28;20065;-64
2023/05/31 03:38:26;;;;;;;29.08;18.55;;;;;;;13.43;85.33;101524.09;5044285;28;20049;-64
2023/05/31 03:40:53;;;;;;;22.88;17.23;;;;;;;13.47;86.04;101525.13;5012993;28;20493;-64
2023/05/31 03:43:21;;;;;;;23.90;17.90;;;;;;;13.32;86.40;101521.84;5013502;28;20053;-65
2023/05/31 03:45:48;;;;;;;24.77;17.88;;;;;;;13.58;86.15;101515.41;5012292;28;20054;-64
2023/05/31 03:48:15;;;;;;;26.88;17.13;;;;;;;13.80;84.75;101514.59;5011612;28;20061;-65
2023/05/31 03:50:44;;;;;;;23.05;16.95;;;;;;;13.71;84.81;101521.19;4995376;28;20665;-66
2023/05/31 03:53:11;;;;;;;26.83;17.95;;;;;;;13.55;85.73;101523.53;5012166;28;20585;-65
2023/05/31 03:55:38;;;;;;;26.33;17.30;;;;;;;13.71;85.12;101523.97;5012180;28;20046;-65
2023/05/31 03:58:06;;;;;;;25.33;18.17;;;;;;;13.60;84.80;101531.69;5011768;28;20046;-64
2023/05/31 04:00:36;;;;;;;;;;;;;;;13.30;86.57;101526.91;5012884;28;20049;-64
2023/05/31 04:03:03;;;;;;;26.65;18.23;;;;;;;13.24;87.61;101531.72;5008050;28;19921;-64
2023/05/31 04:05:34;;;;;;;25.80;17.30;;;;;;;13.44;86.34;101538.75;5009268;28;20049;-64
2023/05/31 04:08:01;;;;;;;28.33;18.00;;;;;;;13.24;86.83;101537.28;5031500;28;20041;-64
2023/05/31 04:10:31;;;;;;;31.83;18.67;;;;;;;13.14;88.31;101534.75;5014671;28;20046;-64
2023/05/31 04:12:59;;;;;;;25.23;17.75;;;;;;;13.54;86.85;101533.81;5017119;28;20049;-66
2023/05/31 04:15:27;;;;;;;33.08;18.85;;;;;;;13.39;86.08;101536.09;5015553;28;20053;-64
2023/05/31 04:17:58;;;;;;;26.48;18.40;;;;;;;13.36;86.77;101536.72;5000022;28;20054;-65
2023/05/31 04:20:26;;;;;;;28.85;17.42;;;;;;;13.61;85.94;101547.19;5011638;28;20057;-63
2023/05/31 04:22:53;;;;;;;25.33;18.15;;;;;;;13.26;86.69;101548.84;5030721;28;20061;-65
2023/05/31 04:25:20;;;;;;;26.15;18.50;;;;;;;13.07;87.94;101553.69;5029602;28;20062;-64
2023/05/31 04:27:49;;;;;;;33.80;18.55;;;;;;;13.12;88.39;101548.06;5015774;28;20049;-64
2023/05/31 04:30:17;;;;;;;25.92;18.42;;;;;;;13.42;87.10;101554.84;5009947;28;20057;-64
2023/05/31 04:32:45;;;;;;;26.33;19.10;;;;;;;13.02;88.09;101550.22;5011893;28;20053;-65
2023/05/31 04:35:12;;;;;;;28.05;19.63;;;;;;;13.04;88.97;101548.75;4995596;28;20050;-64
2023/05/31 04:37:45;;;;;;;25.45;18.73;;;;;;;13.32;88.01;101550.34;5015189;28;20064;-65
2023/05/31 04:40:14;;;;;;;30.30;18.88;;;;;;;13.42;86.72;101550.13;5015316;28;20505;-67
2023/05/31 04:42:42;;;;;;;26.38;19.40;;;;;;;13.03;87.88;101549.09;5014825;28;20715;-64
2023/05/31 04:45:21;;;;;;;;;;;;;;;12.94;89.89;101550.91;5000899;28;20747;-64
2023/05/31 04:47:51;;;;;;;23.05;17.25;;;;;;;13.15;88.96;101552.13;5015033;28;19928;-64
2023/05/31 04:50:19;;;;;;;28.67;19.23;;;;;;;13.11;88.59;101545.59;5027239;28;20054;-64
2023/05/31 04:52:48;;;;;;;30.55;19.90;;;;;;;13.07;88.82;101542.63;5029465;28;20152;-64
2023/05/31 04:55:15;;;;;;;26.95;18.35;;;;;;;12.89;90.41;101545.47;5013924;28;20053;-64
2023/05/31 04:57:43;;;;;;;25.05;18.75;;;;;;;12.95;89.35;101547.03;5014776;28;20752;-64
2023/05/31 05:00:15;;;;;;;27.92;18.15;;;;;;;13.30;89.03;101546.28;5013582;28;20298;-65
2023/05/31 05:03:03;;;;;;;33.25;18.55;;;;;;;13.37;87.28;101544.69;4995974;28;20062;-64
2023/05/31 05:05:32;;;;;;;30.08;18.27;;;;;;;13.53;86.31;101545.16;5010405;28;20484;-64
2023/05/31 05:07:59;;;;;;;29.05;18.85;;;;;;;13.09;88.43;101545.09;5014303;28;20489;-64
2023/05/31 05:10:27;;;;;;;29.58;19.02;;;;;;;13.14;88.63;101544.97;5030147;28;20064;-65
2023/05/31 05:12:55;;;;;;;29.77;19.55;;;;;;;13.31;87.92;101545.97;5014530;28;20038;-65
2023/05/31 05:15:22;;;;;;;27.23;17.85;;;;;;;13.64;86.32;101542.97;5014409;28;20061;-64
2023/05/31 05:17:50;;;;;;;30.70;18.05;;;;;;;13.91;84.42;101537.31;5030799;28;20067;-64
2023/05/31 05:20:19;;;;;;;26.42;18.10;;;;;;;13.82;83.67;101553.06;4977744;28;20042;-65
2023/05/31 05:22:52;;;;;;;27.27;18.95;;;;;;;13.96;83.28;101542.72;4999590;28;20062;-64
2023/05/31 05:25:21;;;;;;;27.83;17.83;;;;;;;13.77;83.84;101548.47;4994029;28;20062;-65
2023/05/31 05:27:49;;;;;;;26.30;18.20;;;;;;;13.66;85.75;101549.00;5027768;28;20066;-64
2023/05/31 05:30:17;;;;;;;33.17;17.83;;;;;;;13.87;83.47;101536.31;5012610;28;20041;-64
2023/05/31 05:32:47;;;;;;;26.55;17.65;;;;;;;13.92;83.26;101544.47;5010438;28;20089;-65
2023/05/31 05:35:14;;;;;;;30.58;17.13;;;;;;;14.06;82.33;101545.22;5006676;28;20050;-64
2023/05/31 05:37:41;;;;;;;29.63;17.42;;;;;;;14.05;82.64;101540.84;5012847;28;20058;-65
2023/05/31 05:40:09;;;;;;;23.33;16.52;;;;;;;14.14;81.77;101541.72;5013627;28;20057;-66
2023/05/31 05:42:37;;;;;;;28.70;16.80;;;;;;;13.88;82.64;101562.88;5014763;28;20089;-65
2023/05/31 05:45:07;;;;;;;24.83;16.42;;;;;;;13.99;82.34;101553.16;5014533;28;20053;-65
2023/05/31 05:47:35;;;;;;;22.05;15.90;;;;;;;14.19;81.12;101555.44;5014836;28;20046;-65
2023/05/31 05:50:03;;;;;;;23.30;15.35;;;;;;;14.12;81.39;101550.31;5027270;28;20054;-65
2023/05/31 05:52:30;;;;;;;22.52;15.65;;;;;;;14.33;80.57;101547.88;5043662;28;20054;-66
2023/05/31 05:54:58;;;;;;;29.15;15.95;;;;;;;14.17;80.29;101555.75;5012266;28;20054;-64
2023/05/31 05:57:26;;;;;;;24.45;15.68;;;;;;;14.26;81.47;101556.63;5013399;28;20121;-66
2023/05/31 06:00:05;;;;;;;28.67;15.30;;;;;;;14.57;79.48;101548.31;5045210;28;20449;-65
2023/05/31 06:02:40;;;;;;;26.98;15.32;;;;;;;14.78;77.95;101543.81;5012972;28;20061;-65
2023/05/31 06:05:08;;;;;;;24.90;14.85;;;;;;;14.58;78.46;101552.72;5015009;28;20050;-65
2023/05/31 06:07:36;;;;;;;24.33;15.20;;;;;;;14.38;78.97;101542.19;4996017;28;20183;-64
2023/05/31 06:10:04;;;;;;;26.15;15.55;;;;;;;14.50;79.18;101546.00;5013630;28;20062;-64
2023/05/31 06:12:33;;;;;;;22.33;15.13;;;;;;;14.87;77.57;101541.88;5029334;28;20054;-64
2023/05/31 06:15:00;;;;;;;21.55;13.93;;;;;;;15.12;76.56;101541.13;5013515;28;20080;-65
2023/05/31 06:17:28;;;;;;;22.75;14.00;;;;;;;15.24;75.08;101546.03;5024208;28;20053;-65
2023/05/31 06:19:55;;;;;;;23.23;14.48;;;;;;;15.13;75.15;101551.06;5008654;28;20589;-63
2023/05/31 06:22:23;;;;;;;20.98;14.07;;;;;;;15.28;74.91;101547.03;5005563;28;20049;-65
2023/05/31 06:24:51;;;;;;;24.90;13.82;;;;;;;15.56;74.13;101543.66;5011981;28;20041;-65
2023/05/31 06:27:20;;;;;;;23.63;13.43;;;;;;;15.67;73.30;101542.16;4997921;28;20061;-65
2023/05/31 06:29:47;;;;;;;19.92;13.25;;;;;;;15.58;73.04;101544.16;5038463;28;20050;-65
2023/05/31 06:32:40;;;;;;;25.05;13.75;;;;;;;15.39;72.85;101546.41;5006466;28;20066;-66
2023/05/31 06:35:09;;;;;;;20.95;13.23;;;;;;;15.38;73.04;101539.19;5013216;28;20476;-65
2023/05/31 06:37:39;;;;;;;23.27;13.32;;;;;;;15.43;72.87;101541.06;5026361;28;20057;-64
2023/05/31 06:40:07;;;;;;;25.38;12.95;;;;;;;15.79;72.07;101531.22;5026037;28;20061;-64
2023/05/31 06:42:36;;;;;;;29.52;13.80;;;;;;;15.75;71.76;101543.31;5014568;28;20574;-65
2023/05/31 06:45:41;;;;;;;21.85;13.20;;;;;;;15.56;72.59;101546.44;4960504;28;20789;-64
2023/05/31 06:48:18;;;;;;;24.07;13.13;;;;;;;15.73;71.57;101546.44;5009790;28;20054;-64
2023/05/31 06:51:05;;;;;;;23.55;12.63;;;;;;;15.68;70.99;101543.81;5018690;28;20775;-64
2023/05/31 06:53:51;;;;;;;22.33;12.95;;;;;;;15.72;70.76;101541.19;5012938;28;20065;-64
2023/05/31 06:56:26;;;;;;;26.70;12.13;;;;;;;15.67;70.61;101541.38;5023921;28;20057;-65
2023/05/31 06:58:54;;;;;;;19.02;11.98;;;;;;;15.69;70.70;101539.09;5012039;28;20053;-65
2023/05/31 07:01:21;;;;;;;19.08;11.13;;;;;;;15.95;69.86;101527.94;5026684;28;20054;-65
2023/05/31 07:03:48;;;;;;;21.05;11.73;;;;;;;16.19;69.24;101530.97;5006387;28;20504;-65
2023/05/31 07:06:16;;;;;;;23.30;12.50;;;;;;;15.91;69.41;101529.72;5010303;28;20053;-65
2023/05/31 07:08:46;;;;;;;25.17;11.60;;;;;;;15.88;69.57;101533.19;5041910;28;20060;-65
2023/05/31 07:11:33;;;;;;;19.50;10.90;;;;;;;15.67;69.28;101533.03;5010735;28;20037;-66
2023/05/31 07:14:03;;;;;;;20.00;10.90;;;;;;;15.79;69.65;101527.63;5030519;28;20453;-65
2023/05/31 07:16:30;;;;;;;28.27;11.75;;;;;;;16.20;68.28;101536.22;5035735;28;20049;-66
2023/05/31 07:18:59;;;;;;;17.38;11.52;;;;;;;16.12;68.27;101522.34;5035737;28;20700;-65
2023/05/31 07:21:26;;;;;;;17.92;11.18;;;;;;;16.51;67.20;101516.53;5015408;28;20050;-65
2023/05/31 07:23:55;;;;;;;20.33;10.88;;;;;;;16.56;66.66;101513.56;5014455;28;20061;-65
2023/05/31 07:26:23;;;;;;;21.00;10.73;;;;;;;16.79;65.66;101512.94;5040296;28;20061;-65
2023/05/31 07:28:53;;;;;;;17.55;11.00;;;;;;;17.25;64.27;101505.59;4995034;28;20401;-66
2023/05/31 07:31:21;;;;;;;22.38;10.82;;;;;;;17.44;62.66;101514.28;5012996;28;20046;-65
2023/05/31 07:33:48;;;;;;;15.32;9.60;;;;;;;17.65;62.13;101504.81;5013428;28;20666;-67
2023/05/31 07:36:16;;;;;;;15.65;10.25;;;;;;;17.88;61.21;101506.06;5039590;28;20445;-65
2023/05/31 07:38:43;;;;;;;19.45;10.43;;;;;;;17.64;60.55;101514.28;5015824;28;20065;-66
2023/05/31 07:41:11;;;;;;;13.13;9.32;;;;;;;18.00;59.89;101505.28;5017679;28;20057;-66
2023/05/31 07:43:40;;;;;;;18.45;9.93;;;;;;;17.91;59.59;101499.78;5007845;28;20049;-65
2023/05/31 07:46:08;;;;;;;20.80;9.73;;;;;;;18.44;58.14;101498.91;5021910;28;20586;-67
2023/05/31 07:48:35;;;;;;;19.50;10.00;;;;;;;18.33;57.90;101496.84;5016992;28;20045;-66
2023/05/31 07:51:03;;;;;;;18.55;9.55;;;;;;;17.78;60.02;101502.88;5010452;28;20049;-65
2023/05/31 07:53:30;;;;;;;20.92;9.88;;;;;;;18.02;59.96;101499.34;5009540;28;20050;-65
2023/05/31 07:55:58;;;;;;;21.42;10.25;;;;;;;18.59;58.32;101494.59;5012416;28;20061;-66
2023/05/31 07:58:25;;;;;;;18.42;9.60;;;;;;;18.72;57.45;101494.25;5018389;28;20060;-65
2023/05/31 08:00:53;;;;;;;19.52;9.30;;;;;;;18.63;57.44;101487.97;5015225;28;20048;-65
2023/05/31 08:03:21;;;;;;;14.32;8.75;;;;;;;18.70;56.75;101492.97;5017850;28;20046;-66
2023/05/31 08:05:49;;;;;;;19.15;9.27;;;;;;;18.01;58.52;101484.59;5042347;28;20050;-66
2023/05/31 08:08:16;;;;;;;25.27;9.65;;;;;;;18.53;57.77;101484.84;5013383;28;20050;-64
2023/05/31 08:10:44;;;;;;;18.73;8.98;;;;;;;18.99;56.43;101484.31;5014446;28;20046;-65
2023/05/31 08:13:11;;;;;;;21.15;8.63;;;;;;;19.02;55.96;101478.06;5043471;28;20069;-65
2023/05/31 08:15:38;;;;;;;20.08;8.15;;;;;;;18.98;55.81;101493.88;5041461;28;20057;-66
2023/05/31 08:18:06;;;;;;;20.95;8.02;;;;;;;18.85;56.54;101481.91;5013666;28;20061;-65
2023/05/31 08:20:34;;;;;;;21.08;8.73;;;;;;;18.96;55.74;101485.03;5014914;28;20117;-65
2023/05/31 08:23:02;;;;;;;16.42;8.73;;;;;;;18.69;56.16;101480.19;5013755;28;20059;-64
2023/05/31 08:25:29;;;;;;;17.92;9.45;;;;;;;18.47;57.16;101480.63;5013301;28;20050;-65
2023/05/31 08:27:57;;;;;;;19.77;8.68;;;;;;;18.21;57.30;101492.09;5012071;28;20050;-66
2023/05/31 08:30:24;;;;;;;20.48;7.82;;;;;;;18.40;57.19;101475.63;5036529;28;20054;-65
2023/05/31 08:32:52;;;;;;;19.48;7.22;;;;;;;18.64;56.37;101472.03;5014640;28;20053;-65
2023/05/31 08:35:20;;;;;;;18.13;7.45;;;;;;;18.73;56.12;101472.72;5012831;28;20061;-65
2023/05/31 08:37:47;;;;;;;19.60;8.77;;;;;;;18.53;56.28;101465.31;5015400;28;20600;-65
2023/05/31 08:40:15;;;;;;;17.92;7.72;;;;;;;18.57;56.50;101471.78;5041883;28;20507;-65
2023/05/31 08:42:59;;;;;;;16.52;8.00;;;;;;;18.61;56.48;101464.34;5015752;28;20052;-65
2023/05/31 08:45:29;;;;;;;16.75;7.25;;;;;;;18.72;56.39;101459.94;5045012;28;20499;-66
2023/05/31 08:48:11;;;;;;;13.98;7.60;;;;;;;18.55;55.79;101462.97;5037867;28;20057;-65
2023/05/31 08:50:39;;;;;;;17.42;6.38;;;;;;;18.66;56.76;101459.34;5019419;28;20053;-65
2023/05/31 08:53:07;;;;;;;17.33;7.03;;;;;;;18.74;55.56;101457.63;5009228;28;20050;-65
2023/05/31 08:55:36;;;;;;;19.63;7.43;;;;;;;18.87;54.91;101453.63;5015692;28;20072;-65
2023/05/31 08:58:04;;;;;;;14.52;6.18;;;;;;;19.14;54.98;101449.28;5016727;28;20050;-66
2023/05/31 09:00:32;;;;;;;16.23;6.60;;;;;;;19.05;54.18;101450.25;5011373;28;20049;-66
2023/05/31 09:03:00;;;;;;;18.13;6.43;;;;;;;19.13;54.27;101451.25;5021144;28;20056;-66
2023/05/31 09:05:27;;;;;;;13.60;5.95;;;;;;;19.04;53.96;101453.38;5016393;28;20076;-65
2023/05/31 09:07:56;;;;;;;16.83;5.78;;;;;;;19.09;53.96;101441.94;5007678;28;20477;-65
2023/05/31 09:10:23;;;;;;;16.55;6.10;;;;;;;19.16;54.08;101438.56;5015116;28;20050;-64
2023/05/31 09:12:50;;;;;;;21.25;6.10;;;;;;;19.31;53.35;101435.06;5014585;28;20054;-65
2023/05/31 09:15:18;;;;;;;13.40;5.70;;;;;;;19.34;53.48;101435.16;5019769;28;20508;-64
2023/05/31 09:17:46;;;;;;;13.77;5.72;;;;;;;19.42;53.12;101448.16;5015044;28;20054;-65
2023/05/31 09:20:13;;;;;;;15.13;6.07;;;;;;;19.32;53.34;101440.28;5011299;28;20905;-63
2023/05/31 09:22:41;;;;;;;16.83;6.38;;;;;;;19.33;52.95;101436.34;5009384;28;20058;-65
2023/05/31 09:25:09;;;;;;;22.30;6.60;;;;;;;19.40;52.56;101439.34;5028284;28;20088;-65
2023/05/31 09:27:37;;;;;;;11.82;5.20;;;;;;;19.48;52.60;101440.34;5007799;28;20394;-65
2023/05/31 09:30:08;;;;;;;12.60;6.35;;;;;;;19.44;52.85;101422.69;5009868;28;20457;-65
2023/05/31 09:32:36;;;;;;;15.90;6.88;;;;;;;19.53;52.63;101426.94;5008989;28;20048;-66
2023/05/31 09:35:10;;;;;;;16.77;5.72;;;;;;;19.67;52.50;101416.16;5019353;28;20045;-64
2023/05/31 09:37:46;;;;;;;18.80;6.15;;;;;;;19.36;52.57;101429.22;5018804;28;20046;-63
2023/05/31 09:40:14;;;;;;;15.80;6.05;;;;;;;19.28;52.75;101422.59;5015534;28;20054;-65
2023/05/31 09:42:49;;;;;;;12.02;5.80;;;;;;;19.42;52.80;101433.41;5017793;28;20406;-64
2023/05/31 09:45:17;;;;;;;13.02;5.90;;;;;;;19.51;52.39;101420.09;5029892;28;20057;-64
2023/05/31 09:47:44;;;;;;;16.30;5.75;;;;;;;19.80;51.98;101414.09;5017176;28;21070;-64
2023/05/31 09:50:19;;;;;;;13.30;5.63;;;;;;;19.92;50.86;101431.63;5014629;28;20521;-65
2023/05/31 09:52:48;;;;;;;10.60;5.00;;;;;;;19.86;50.54;101423.84;5014702;28;20137;-64
2023/05/31 09:55:16;;;;;;;21.10;6.13;;;;;;;19.79;51.70;101420.84;5017687;28;20561;-61
2023/05/31 09:57:45;;;;;;;19.23;6.15;;;;;;;19.67;52.32;101415.31;5028455;28;20057;-65
2023/05/31 10:00:20;;;;;;;13.48;5.53;;;;;;;19.70;51.86;101404.25;5016477;28;20056;-65
2023/05/31 10:02:49;;;;;;;16.27;5.85;;;;;;;19.95;51.41;101407.69;5007747;28;20050;-65
2023/05/31 10:05:18;;;;;;;14.70;5.40;;;;;;;19.96;50.62;101398.16;5010946;28;20061;-65
2023/05/31 10:07:48;;;;;;;15.02;5.13;;;;;;;20.13;50.21;101406.19;4995697;28;20053;-65
2023/05/31 10:10:20;;;;;;;19.25;5.45;;;;;;;20.19;50.56;101393.56;5014700;28;20045;-65
2023/05/31 10:12:51;;;;;;;13.82;5.35;;;;;;;20.35;50.40;101391.56;5014066;28;20054;-66
2023/05/31 10:15:22;;;;;;;12.40;5.07;;;;;;;20.42;50.41;101397.34;5020698;28;20076;-66
2023/05/31 10:18:10;;;;;;;11.80;5.75;;;;;;;20.23;50.54;101383.28;5011427;28;20045;-65
2023/05/31 10:20:40;;;;;;;15.85;4.93;;;;;;;20.49;49.56;101377.09;5018464;28;20054;-64
2023/05/31 10:23:35;;;;;;;17.13;5.20;;;;;;;20.53;48.29;101384.41;5018844;28;20061;-66
2023/05/31 10:26:08;;;;;;;11.95;4.30;;;;;;;20.47;48.70;101380.25;5009491;28;20068;-66
2023/05/31 10:28:37;;;;;;;11.15;4.70;;;;;;;20.56;49.35;101380.06;5045616;28;20409;-66
2023/05/31 10:31:05;;;;;;;10.80;4.87;;;;;;;20.49;48.97;101361.13;5024994;28;20054;-67
2023/05/31 10:33:32;;;;;;;10.98;4.93;;;;;;;20.59;48.90;101366.16;5007949;28;20042;-65
2023/05/31 10:36:00;;;;;;;12.40;5.00;;;;;;;20.76;47.56;101356.53;5010388;28;20050;-67
2023/05/31 10:38:35;;;;;;;15.40;4.55;;;;;;;20.87;47.30;101358.38;5010668;28;20049;-68
2023/05/31 10:41:06;;;;;;;13.00;4.43;;;;;;;20.96;47.00;101360.97;5013037;28;20061;-66
2023/05/31 10:43:41;;;;;;;12.73;4.45;;;;;;;20.83;47.24;101367.91;5017129;28;20042;-67
2023/05/31 10:46:10;;;;;;;11.40;4.82;;;;;;;20.81;47.04;101357.06;5012959;28;20057;-66
2023/05/31 10:48:46;;;;;;;9.75;4.35;;;;;;;20.95;46.29;101359.38;5014348;28;20048;-67
2023/05/31 10:51:15;;;;;;;9.68;4.45;;;;;;;21.08;46.05;101356.06;5021530;28;20056;-65
2023/05/31 10:53:47;;;;;;;12.93;4.80;;;;;;;21.20;45.82;101352.28;5013373;28;20058;-64
2023/05/31 10:56:15;;;;;;;15.43;4.63;;;;;;;21.37;45.56;101356.66;5009902;28;20041;-66
2023/05/31 10:58:48;;;;;;;18.00;4.43;;;;;;;21.35;45.59;101343.00;5017142;28;20046;-65
2023/05/31 11:01:20;;;;;;;9.23;4.30;;;;;;;21.39;45.65;101349.50;5009749;28;20044;-66
2023/05/31 11:03:50;;;;;;;13.02;4.53;;;;;;;21.37;45.51;101351.03;5013382;28;20719;-65
2023/05/31 11:06:36;;;;;;;11.20;4.97;;;;;;;21.64;45.12;101335.94;5015731;28;20049;-67
2023/05/31 11:09:11;;;;;;;13.23;5.28;;;;;;;21.72;45.13;101327.28;5008390;28;20050;-65
2023/05/31 11:11:39;;;;;;;9.95;5.18;;;;;;;21.80;44.35;101331.88;5019556;28;20054;-64
2023/05/31 11:14:09;;;;;;;16.40;5.30;;;;;;;21.79;44.70;101330.22;5014994;28;20489;-66
2023/05/31 11:17:03;;;;;;;10.98;4.22;;;;;;;21.76;44.77;101324.56;5013529;28;20437;-65
2023/05/31 11:19:32;;;;;;;17.23;4.85;;;;;;;22.06;44.47;101323.50;5009975;28;20050;-65
2023/05/31 11:22:08;;;;;;;13.27;4.43;;;;;;;22.24;43.78;101332.19;5010182;28;20073;-64
2023/05/31 11:24:39;;;;;;;11.68;4.40;;;;;;;22.28;43.56;101325.44;5016289;28;20096;-64